createdAt,value
2022-08-03T00:02:37.536Z,98074.72
2022-08-03T00:05:41.169Z,98067.19
2022-08-03T00:09:05.704Z,98000.25
2022-08-03T00:12:10.390Z,98063.44
2022-08-03T00:15:16.406Z,98072.72
2022-08-03T00:18:20.709Z,98073.22
2022-08-03T00:21:24.232Z,98087.91
2022-08-03T00:24:31.160Z,98080.28
2022-08-03T00:27:36.355Z,98077.28
2022-08-03T00:30:39.946Z,98064.91
2022-08-03T00:33:59.305Z,98077.41
2022-08-03T00:37:04.075Z,98081.81
2022-08-03T00:40:08.601Z,98079.34
2022-08-03T00:43:13.726Z,98085.69
2022-08-03T00:46:21.428Z,98077.91
2022-08-03T00:49:25.900Z,98081.03
2022-08-03T00:52:29.248Z,98085.56
2022-08-03T00:55:32.886Z,98079.22
2022-08-03T00:58:38.455Z,98083.56
2022-08-03T01:01:42.059Z,98084.13
2022-08-03T01:05:06.054Z,98085.56
2022-08-03T01:08:40.227Z,98086.63
2022-08-03T01:12:12.892Z,98081.25
2022-08-03T01:15:26.671Z,98081.63
2022-08-03T01:18:37.616Z,98083.84
2022-08-03T01:21:54.666Z,98089.34
2022-08-03T01:25:07.216Z,98069.19
2022-08-03T01:28:30.192Z,98079.19
2022-08-03T01:32:53.470Z,98079.56
2022-08-03T01:35:07.650Z,98086.22
2022-08-03T01:38:14.710Z,98084.09
2022-08-03T01:41:22.303Z,98018.28
2022-08-03T01:44:30.917Z,98077.63
2022-08-03T01:47:36.770Z,98057.09
2022-08-03T01:50:41.509Z,98073.97
2022-08-03T01:53:46.611Z,98072.78
2022-08-03T01:56:52.476Z,98073.97
2022-08-03T01:59:58.302Z,98065.19
2022-08-03T02:03:06.607Z,98002.31
2022-08-03T02:07:00.140Z,98071.63
2022-08-03T02:09:38.173Z,98069.44
2022-08-03T02:12:46.079Z,98068.94
2022-08-03T02:15:51.716Z,98060.88
2022-08-03T02:18:58.915Z,98064.88
2022-08-03T02:22:03.313Z,98073.09
2022-08-03T02:25:09.082Z,98053.41
2022-08-03T02:28:18.351Z,98064.91
2022-08-03T02:31:25.982Z,98078.66
2022-08-03T02:34:33.075Z,98070.50
2022-08-03T02:37:42.873Z,98051.34
2022-08-03T02:40:49.960Z,98075.47
2022-08-03T02:44:06.171Z,98076.97
2022-08-03T02:47:13.544Z,98082.66
2022-08-03T02:50:20.394Z,98072.91
2022-08-03T02:53:24.955Z,98070.91
2022-08-03T02:56:29.479Z,98068.72
2022-08-03T02:59:33.517Z,98056.81
2022-08-03T03:02:37.224Z,98070.47
2022-08-03T03:05:55.893Z,98074.06
2022-08-03T03:09:01.582Z,98074.44
2022-08-03T03:12:07.232Z,98074.78
2022-08-03T03:15:12.339Z,98070.72
2022-08-03T03:18:22.208Z,98084.88
2022-08-03T03:21:28.923Z,98082.34
2022-08-03T03:24:32.419Z,98087.03
2022-08-03T03:27:35.792Z,98082.56
2022-08-03T03:34:44.309Z,98091.25
2022-08-03T03:37:48.027Z,98075.34
2022-08-03T03:40:51.388Z,98085.19
2022-08-03T03:43:55.387Z,98084.97
2022-08-03T03:46:59.047Z,98086.41
2022-08-03T03:50:05.785Z,98085.38
2022-08-03T03:53:11.205Z,98089.19
2022-08-03T03:56:14.761Z,98088.03
2022-08-03T03:59:18.155Z,98088.16
2022-08-03T04:02:21.427Z,98093.59
2022-08-03T04:05:45.976Z,98096.19
2022-08-03T04:09:15.498Z,98101.91
2022-08-03T04:12:20.810Z,98096.50
2022-08-03T04:15:25.348Z,98099.03
2022-08-03T04:18:30.810Z,98074.84
2022-08-03T04:21:39.171Z,98105.66
2022-08-03T04:24:47.816Z,98099.09
2022-08-03T04:28:07.751Z,98102.66
2022-08-03T04:31:17.157Z,98100.25
2022-08-03T04:34:23.312Z,98093.53
2022-08-03T04:37:37.036Z,98104.53
2022-08-03T04:40:43.800Z,98108.75
2022-08-03T04:43:49.498Z,98109.81
2022-08-03T04:46:53.900Z,98103.22
2022-08-03T04:49:57.481Z,98115.53
2022-08-03T04:53:03.438Z,98119.19
2022-08-03T04:56:07.440Z,98124.75
2022-08-03T04:59:11.272Z,98092.63
2022-08-03T05:02:15.018Z,98117.94
2022-08-03T05:05:18.800Z,98114.41
2022-08-03T05:08:27.783Z,98123.28
2022-08-03T05:11:31.618Z,98110.72
2022-08-03T05:14:36.152Z,98105.47
2022-08-03T05:17:39.744Z,98055.47
2022-08-03T05:20:43.287Z,98116.69
2022-08-03T05:23:48.079Z,98104.81
2022-08-03T05:26:51.464Z,98111.28
2022-08-03T05:29:54.956Z,98111.53
2022-08-03T05:32:58.370Z,98114.16
2022-08-03T05:36:04.216Z,98120.56
2022-08-03T05:39:09.255Z,98119.56
2022-08-03T05:42:12.622Z,98118.72
2022-08-03T05:45:17.773Z,98119.41
2022-08-03T05:48:21.183Z,98118.38
2022-08-03T05:51:24.390Z,98119.84
2022-08-03T05:54:56.938Z,98055.81
2022-08-03T05:57:52.858Z,98114.47
2022-08-03T06:01:29.275Z,98113.94
2022-08-03T06:04:32.700Z,98121.84
2022-08-03T06:07:37.189Z,98118.00
2022-08-03T06:10:41.905Z,98122.31
2022-08-03T06:13:45.801Z,98117.34
2022-08-03T06:16:49.269Z,98117.88
2022-08-03T06:19:53.582Z,98118.75
2022-08-03T06:23:00.386Z,98121.84
2022-08-03T06:26:05.807Z,98119.84
2022-08-03T06:29:11.024Z,98120.50
2022-08-03T06:32:14.671Z,98119.22
2022-08-03T06:35:18.218Z,98118.81
2022-08-03T06:38:21.927Z,98112.25
2022-08-03T06:41:26.962Z,98115.19
2022-08-03T06:44:30.557Z,98113.19
2022-08-03T06:47:33.907Z,98111.69
2022-08-03T06:50:39.148Z,98109.84
2022-08-03T06:53:42.542Z,98118.47
2022-08-03T06:56:47.226Z,98114.50
2022-08-03T07:00:10.364Z,98117.06
2022-08-03T07:03:15.148Z,98122.38
2022-08-03T07:06:18.438Z,98127.28
2022-08-03T07:09:22.548Z,98109.31
2022-08-03T07:12:29.282Z,98116.97
2022-08-03T07:15:54.495Z,98119.47
2022-08-03T07:18:56.271Z,98123.72
2022-08-03T07:22:04.245Z,98120.75
2022-08-03T07:25:08.568Z,98123.63
2022-08-03T07:28:13.428Z,98124.44
2022-08-03T07:31:16.732Z,98120.53
2022-08-03T07:34:20.461Z,98114.19
2022-08-03T07:37:23.845Z,98104.06
2022-08-03T07:40:31.804Z,98114.59
2022-08-03T07:43:36.785Z,98115.06
2022-08-03T07:46:40.318Z,98120.97
2022-08-03T07:49:44.043Z,98106.25
2022-08-03T07:52:50.841Z,98111.22
2022-08-03T07:55:54.079Z,98112.84
2022-08-03T07:58:59.783Z,98108.16
2022-08-03T08:02:03.176Z,98112.84
2022-08-03T08:05:07.247Z,98105.66
2022-08-03T08:08:10.872Z,98099.22
2022-08-03T08:11:14.375Z,98102.00
2022-08-03T08:14:19.342Z,98106.00
2022-08-03T08:17:22.975Z,98097.13
2022-08-03T08:20:31.515Z,98093.06
2022-08-03T08:23:43.157Z,98090.31
2022-08-03T08:26:48.488Z,98092.84
2022-08-03T08:29:55.748Z,98089.50
2022-08-03T08:33:23.187Z,98098.94
2022-08-03T08:36:27.197Z,98087.25
2022-08-03T08:39:30.536Z,98074.44
2022-08-03T08:42:34.555Z,98082.13
2022-08-03T08:45:40.296Z,98072.34
2022-08-03T08:48:45.749Z,98081.44
2022-08-03T08:52:00.508Z,98086.56
2022-08-03T08:55:06.924Z,98069.47
2022-08-03T08:58:13.084Z,98078.06
2022-08-03T09:01:25.979Z,98036.13
2022-08-03T09:04:30.108Z,98070.09
2022-08-03T09:07:34.083Z,98068.47
2022-08-03T09:10:37.902Z,98063.31
2022-08-03T09:13:41.349Z,98060.09
2022-08-03T09:17:02.651Z,98057.50
2022-08-03T09:20:09.147Z,98058.34
2022-08-03T09:23:51.434Z,98062.94
2022-08-03T09:26:37.486Z,98054.56
2022-08-03T09:29:42.042Z,98057.25
2022-08-03T09:34:43.709Z,98036.81
2022-08-03T09:38:12.609Z,98055.34
2022-08-03T09:41:19.776Z,98049.84
2022-08-03T09:44:35.482Z,98053.50
2022-08-03T09:47:45.134Z,98040.50
2022-08-03T09:50:58.614Z,98054.91
2022-08-03T09:54:27.952Z,98041.03
2022-08-03T09:57:32.054Z,98037.63
2022-08-03T10:00:54.967Z,98044.22
2022-08-03T10:04:03.943Z,98055.34
2022-08-03T10:07:11.435Z,98050.41
2022-08-03T10:10:30.651Z,97979.75
2022-08-03T10:13:35.550Z,98039.91
2022-08-03T10:16:40.685Z,98031.41
2022-08-03T10:19:44.586Z,98033.09
2022-08-03T10:22:50.208Z,98024.59
2022-08-03T10:25:59.511Z,98017.81
2022-08-03T10:29:12.922Z,97975.28
2022-08-03T10:32:22.609Z,98022.66
2022-08-03T10:35:27.151Z,98029.81
2022-08-03T10:38:41.771Z,98014.06
2022-08-03T10:41:47.388Z,98011.66
2022-08-03T10:44:57.099Z,98014.78
2022-08-03T10:48:01.358Z,98001.34
2022-08-03T10:51:06.907Z,98000.03
2022-08-03T10:54:59.098Z,97993.53
2022-08-03T10:58:07.952Z,97999.00
2022-08-03T11:01:14.918Z,97999.34
2022-08-03T11:04:20.302Z,97988.66
2022-08-03T11:07:25.501Z,97987.31
2022-08-03T11:10:33.549Z,97985.00
2022-08-03T11:13:36.879Z,97985.00
2022-08-03T11:16:42.049Z,97990.97
2022-08-03T11:19:57.564Z,97984.19
2022-08-03T11:23:03.081Z,97983.91
2022-08-03T11:26:17.639Z,97989.03
2022-08-03T11:29:31.282Z,97977.41
2022-08-03T11:33:02.522Z,97976.84
2022-08-03T11:36:06.390Z,97972.13
2022-08-03T11:39:17.245Z,97963.53
2022-08-03T11:42:41.604Z,97965.44
2022-08-03T11:45:58.121Z,97956.88
2022-08-03T11:49:10.396Z,97952.81
2022-08-03T11:52:14.245Z,97948.06
2022-08-03T11:55:22.080Z,97959.56
2022-08-03T11:59:19.067Z,97954.59
2022-08-03T12:01:52.098Z,97931.22
2022-08-03T12:04:58.266Z,97927.59
2022-08-03T12:08:04.457Z,97927.16
2022-08-03T12:11:12.241Z,97938.63
2022-08-03T12:14:51.873Z,97941.53
2022-08-03T12:17:57.950Z,97931.72
2022-08-03T12:21:07.630Z,97919.53
2022-08-03T12:24:10.957Z,97923.47
2022-08-03T12:27:23.502Z,97925.06
2022-08-03T12:30:29.083Z,97923.16
2022-08-03T12:33:33.049Z,97900.06
2022-08-03T12:36:39.202Z,97912.56
2022-08-03T12:40:01.626Z,97912.66
2022-08-03T12:43:13.082Z,97911.22
2022-08-03T12:46:20.512Z,97893.88
2022-08-03T12:49:23.837Z,97908.72
2022-08-03T12:52:27.287Z,97908.09
2022-08-03T12:55:57.217Z,97840.09
2022-08-03T12:58:58.395Z,97899.09
2022-08-03T13:02:04.702Z,97898.66
2022-08-03T13:05:15.461Z,97899.53
2022-08-03T13:08:20.683Z,97888.31
2022-08-03T13:11:53.573Z,97896.63
2022-08-03T13:14:51.943Z,97891.16
2022-08-03T13:17:57.263Z,97888.25
2022-08-03T13:21:00.773Z,97878.94
2022-08-03T13:24:04.250Z,97883.91
2022-08-03T13:28:01.270Z,97885.88
2022-08-03T13:30:31.252Z,97885.00
2022-08-03T13:33:36.018Z,97877.69
2022-08-03T13:37:07.467Z,97883.88
2022-08-03T13:40:05.703Z,97879.34
2022-08-03T13:43:09.194Z,97883.00
2022-08-03T13:46:12.489Z,97868.78
2022-08-03T13:49:17.456Z,97874.66
2022-08-03T13:52:21.095Z,97875.22
2022-08-03T13:55:24.900Z,97868.13
2022-08-03T13:58:28.471Z,97872.25
2022-08-03T14:01:54.419Z,97863.50
2022-08-03T14:04:56.852Z,97862.75
2022-08-03T14:08:04.964Z,97858.50
2022-08-03T14:11:08.658Z,97823.84
2022-08-03T14:14:12.462Z,97849.59
2022-08-03T14:17:16.360Z,97861.50
2022-08-03T14:20:36.882Z,97853.78
2022-08-03T14:23:41.033Z,97848.94
2022-08-03T14:26:44.805Z,97847.06
2022-08-03T14:29:48.016Z,97840.81
2022-08-03T14:32:51.288Z,97833.03
2022-08-03T14:35:56.069Z,97835.50
2022-08-03T14:39:01.380Z,97831.47
2022-08-03T14:42:05.791Z,97823.47
2022-08-03T14:45:19.884Z,97831.72
2022-08-03T14:50:31.650Z,97833.19
2022-08-03T14:51:53.833Z,97803.22
2022-08-03T14:54:57.580Z,97824.94
2022-08-03T14:58:05.531Z,97818.91
2022-08-03T15:02:06.488Z,97816.75
2022-08-03T15:04:46.180Z,97815.63
2022-08-03T15:07:50.783Z,97776.31
2022-08-03T15:10:54.847Z,97797.72
2022-08-03T15:13:58.282Z,97807.22
2022-08-03T15:17:01.788Z,97803.03
2022-08-03T15:20:28.841Z,97795.28
2022-08-03T15:23:31.293Z,97792.28
2022-08-03T15:26:39.387Z,97796.25
2022-08-03T15:30:04.778Z,97786.97
2022-08-03T15:34:42.601Z,97792.28
2022-08-03T15:37:54.096Z,97790.88
2022-08-03T15:40:59.025Z,97793.84
2022-08-03T15:44:10.953Z,97794.78
2022-08-03T15:47:14.345Z,97794.13
2022-08-03T15:50:19.229Z,97784.44
2022-08-03T15:53:22.665Z,97785.03
2022-08-03T15:56:27.188Z,97787.31
2022-08-03T15:59:30.916Z,97788.88
2022-08-03T16:02:34.265Z,97739.13
2022-08-03T16:05:39.178Z,97774.81
2022-08-03T16:08:42.844Z,97784.72
2022-08-03T16:11:46.740Z,97772.78
2022-08-03T16:14:53.801Z,97776.91
2022-08-03T16:17:58.549Z,97770.00
2022-08-03T16:21:03.265Z,97771.53
2022-08-03T16:24:08.963Z,97769.84
2022-08-03T16:28:00.384Z,97770.50
2022-08-03T16:30:45.530Z,97762.91
2022-08-03T16:33:49.138Z,97759.63
2022-08-03T16:36:54.674Z,97762.75
2022-08-03T16:39:57.928Z,97762.63
2022-08-03T16:43:01.365Z,97757.06
2022-08-03T16:46:05.056Z,97744.59
2022-08-03T16:49:08.342Z,97739.69
2022-08-03T16:52:13.315Z,97757.81
2022-08-03T16:55:18.521Z,97761.56
2022-08-03T16:59:00.777Z,97761.34
2022-08-03T17:02:10.453Z,97758.59
2022-08-03T17:05:15.445Z,97754.06
2022-08-03T17:08:26.521Z,97759.59
2022-08-03T17:11:32.901Z,97755.34
2022-08-03T17:14:37.031Z,97751.25
2022-08-03T17:17:53.783Z,97764.56
2022-08-03T17:21:26.778Z,97764.56
2022-08-03T17:24:40.788Z,97761.38
2022-08-03T17:28:50.297Z,97764.88
2022-08-03T17:31:22.577Z,97773.47
2022-08-03T17:34:34.259Z,97759.50
2022-08-03T17:37:57.929Z,97755.81
2022-08-03T17:41:10.588Z,97773.81
2022-08-03T17:44:33.091Z,97762.69
2022-08-03T17:47:42.671Z,97767.19
2022-08-03T17:50:54.219Z,97770.53
2022-08-03T17:54:05.784Z,97768.88
2022-08-03T17:57:30.027Z,97776.53
2022-08-03T18:01:59.204Z,97769.75
2022-08-03T18:04:42.891Z,97778.81
2022-08-03T18:07:48.091Z,97771.22
2022-08-03T18:10:54.435Z,97773.69
2022-08-03T18:14:17.108Z,97776.34
2022-08-03T18:17:55.217Z,97760.50
2022-08-03T18:20:53.482Z,97784.31
2022-08-03T18:23:59.467Z,97781.38
2022-08-03T18:27:04.101Z,97782.34
2022-08-03T18:30:13.856Z,97776.13
2022-08-03T18:34:19.531Z,97780.38
2022-08-03T18:36:47.544Z,97779.09
2022-08-03T18:39:52.660Z,97761.31
2022-08-03T18:42:56.805Z,97790.06
2022-08-03T18:46:05.554Z,97785.63
2022-08-03T18:49:12.805Z,97792.06
2022-08-03T18:52:18.648Z,97791.38
2022-08-03T18:55:33.587Z,97790.16
2022-08-03T18:58:52.251Z,97798.06
2022-08-03T19:02:04.197Z,97793.78
2022-08-03T19:05:09.896Z,97802.06
2022-08-03T19:08:18.048Z,97804.69
2022-08-03T19:11:28.103Z,97787.81
2022-08-03T19:14:41.733Z,97811.91
2022-08-03T19:17:52.903Z,97810.09
2022-08-03T19:20:58.229Z,97814.53
2022-08-03T19:24:06.717Z,97813.38
2022-08-03T19:27:13.454Z,97815.06
2022-08-03T19:30:39.782Z,97817.56
2022-08-03T19:33:57.272Z,97814.91
2022-08-03T19:37:01.004Z,97822.16
2022-08-03T19:40:10.232Z,97821.03
2022-08-03T19:43:21.756Z,97815.63
2022-08-03T19:46:30.839Z,97824.41
2022-08-03T19:50:04.592Z,97817.19
2022-08-03T19:53:06.179Z,97823.13
2022-08-03T19:56:16.695Z,97821.50
2022-08-03T19:59:21.143Z,97831.16
2022-08-03T20:02:26.615Z,97817.69
2022-08-03T20:05:44.963Z,97833.22
2022-08-03T20:08:56.480Z,97817.53
2022-08-03T20:12:02.206Z,97830.84
2022-08-03T20:15:07.422Z,97829.72
2022-08-03T20:18:16.911Z,97831.28
2022-08-03T20:21:24.925Z,97822.16
2022-08-03T20:24:29.518Z,97823.88
2022-08-03T20:28:07.309Z,97832.00
2022-08-03T20:31:02.971Z,97824.72
2022-08-03T20:34:07.318Z,97833.66
2022-08-03T20:37:14.209Z,97832.06
2022-08-03T20:40:17.822Z,97836.97
2022-08-03T20:43:21.402Z,97797.91
2022-08-03T20:46:31.684Z,97826.56
2022-08-03T20:49:45.667Z,97797.31
2022-08-03T20:52:51.080Z,97819.69
2022-08-03T20:56:02.283Z,97826.53
2022-08-03T20:59:14.926Z,97827.72
2022-08-03T21:02:28.954Z,97831.09
2022-08-03T21:05:48.298Z,97832.56
2022-08-03T21:09:05.182Z,97811.00
2022-08-03T21:12:15.416Z,97826.63
2022-08-03T21:16:06.774Z,97828.19
2022-08-03T21:18:52.545Z,97829.28
2022-08-03T21:21:56.830Z,97835.28
2022-08-03T21:25:05.515Z,97833.31
2022-08-03T21:28:09.088Z,97833.50
2022-08-03T21:34:43.493Z,97832.69
2022-08-03T21:37:49.255Z,97831.69
2022-08-03T21:40:54.675Z,97836.66
2022-08-03T21:43:58.305Z,97839.13
2022-08-03T21:47:03.713Z,97843.94
2022-08-03T21:50:10.917Z,97839.63
2022-08-03T21:53:16.075Z,97779.31
2022-08-03T21:56:22.722Z,97839.63
2022-08-03T21:59:26.790Z,97829.66
2022-08-03T22:02:32.685Z,97816.63
2022-08-03T22:05:44.022Z,97834.00
2022-08-03T22:08:48.488Z,97822.97
2022-08-03T22:11:54.262Z,97835.81
2022-08-03T22:15:00.016Z,97839.81
2022-08-03T22:18:06.002Z,97838.31
2022-08-03T22:21:13.104Z,97832.66
2022-08-03T22:24:19.668Z,97836.47
2022-08-03T22:27:32.322Z,97828.84
2022-08-03T22:30:36.137Z,97845.78
2022-08-03T22:33:40.575Z,97839.94
2022-08-03T22:36:45.358Z,97839.28
2022-08-03T22:39:48.728Z,97842.91
2022-08-03T22:42:53.218Z,97828.28
2022-08-03T22:46:09.776Z,97843.31
2022-08-03T22:49:17.939Z,97865.03
2022-08-03T22:52:23.829Z,97859.69
2022-08-03T22:55:28.494Z,97835.34
2022-08-03T22:58:31.965Z,97860.63
2022-08-03T23:01:39.245Z,97857.19
2022-08-03T23:04:44.807Z,97864.94
2022-08-03T23:07:52.079Z,97866.19
2022-08-03T23:11:02.244Z,97864.53
2022-08-03T23:14:11.524Z,97866.84
2022-08-03T23:17:15.781Z,97863.78
2022-08-03T23:20:21.296Z,97864.13
2022-08-03T23:23:44.392Z,97863.63
2022-08-03T23:26:49.652Z,97870.44
2022-08-03T23:29:54.807Z,97865.97
2022-08-03T23:33:02.015Z,97873.34
2022-08-03T23:36:28.256Z,97871.91
2022-08-03T23:39:34.965Z,97868.53
2022-08-03T23:42:40.022Z,97871.44
2022-08-03T23:45:45.837Z,97881.13
2022-08-03T23:48:49.217Z,97878.13
2022-08-03T23:52:02.954Z,97872.88
2022-08-03T23:55:17.619Z,97874.03
2022-08-03T23:58:34.326Z,97849.75
